Time;durP1;ratioP1;P1;durP2;ratioP2;P2;SDS_P1;SDS_P2;PMS_P1;PMS_P2;Temp;Humidity;BMP_temperature;BMP_pressure;BME280_temperature;BME280_humidity;BME280_pressure;Samples;Min_cycle;Max_cycle;Signal;HPM_P1;HPM_P2
2022/06/26 00:00:19;;;;;;;13.27;11.95;;;18.40;99.90;;;;;;5030319;28;20044;-66
2022/06/26 00:02:48;;;;;;;11.20;10.18;;;18.40;99.90;;;;;;5047017;28;20514;-66
2022/06/26 00:05:14;;;;;;;9.82;8.85;;;18.30;99.90;;;;;;5043520;28;20041;-66
2022/06/26 00:07:40;;;;;;;10.65;8.63;;;18.20;99.90;;;;;;5029490;28;20057;-66
2022/06/26 00:10:06;;;;;;;8.25;7.45;;;18.10;99.90;;;;;;5047205;28;20045;-66
2022/06/26 00:12:34;;;;;;;8.82;7.93;;;18.10;99.90;;;;;;5033253;28;20041;-66
2022/06/26 00:15:00;;;;;;;8.75;7.85;;;18.10;99.90;;;;;;5046704;28;20139;-66
2022/06/26 00:17:26;;;;;;;7.75;7.05;;;18.00;99.90;;;;;;5030638;28;20103;-66
2022/06/26 00:19:53;;;;;;;9.98;8.95;;;17.90;99.90;;;;;;5062864;28;20045;-66
2022/06/26 00:22:20;;;;;;;10.82;9.73;;;17.90;99.90;;;;;;5047923;28;20049;-66
2022/06/26 00:24:46;;;;;;;9.98;9.07;;;17.90;99.90;;;;;;5046779;28;20045;-66
2022/06/26 00:27:12;;;;;;;10.02;9.02;;;17.80;99.90;;;;;;5048533;28;20125;-66
2022/06/26 00:29:38;;;;;;;10.05;9.05;;;17.70;99.90;;;;;;5047848;28;20037;-66
2022/06/26 00:32:05;;;;;;;11.05;9.98;;;17.80;99.90;;;;;;5046458;28;20080;-66
2022/06/26 00:34:32;;;;;;;13.95;12.40;;;17.70;99.90;;;;;;5046836;28;20049;-66
2022/06/26 00:36:57;;;;;;;14.65;13.05;;;17.60;99.90;;;;;;5046792;28;20049;-66
2022/06/26 00:39:24;;;;;;;11.68;9.95;;;17.60;99.90;;;;;;5044935;28;20053;-66
2022/06/26 00:41:52;;;;;;;14.43;12.95;;;17.50;99.90;;;;;;5046630;28;20050;-66
2022/06/26 00:44:23;;;;;;;13.43;12.02;;;17.50;99.90;;;;;;5040685;28;20049;-66
2022/06/26 00:46:50;;;;;;;12.75;10.13;;;17.40;99.90;;;;;;5026901;28;20108;-66
2022/06/26 00:49:16;;;;;;;11.10;9.90;;;17.40;99.90;;;;;;5042095;28;20049;-66
2022/06/26 00:51:47;;;;;;;10.90;8.77;;;17.50;99.90;;;;;;5047005;28;20080;-66
2022/06/26 00:54:14;;;;;;;14.63;10.85;;;17.40;99.90;;;;;;5046531;28;20045;-66
2022/06/26 00:56:40;;;;;;;14.77;13.15;;;17.40;99.90;;;;;;5046501;28;20044;-66
2022/06/26 00:59:06;;;;;;;37.42;15.50;;;17.30;99.90;;;;;;5047053;28;20077;-66
2022/06/26 01:01:34;;;;;;;29.02;18.40;;;17.30;99.90;;;;;;5045952;28;20130;-66
2022/06/26 01:04:01;;;;;;;27.27;23.15;;;17.30;99.90;;;;;;5045381;28;20049;-66
2022/06/26 01:06:28;;;;;;;36.13;23.02;;;17.20;99.90;;;;;;5046888;28;20049;-66
2022/06/26 01:08:54;;;;;;;28.48;22.65;;;17.20;99.90;;;;;;5046889;28;20105;-66
2022/06/26 01:11:23;;;;;;;24.83;22.10;;;17.20;99.90;;;;;;5046375;28;20049;-66
2022/06/26 01:13:51;;;;;;;17.17;15.47;;;17.20;99.90;;;;;;5041601;28;20041;-66
2022/06/26 01:16:20;;;;;;;15.95;14.45;;;17.30;99.90;;;;;;5030116;28;20045;-66
2022/06/26 01:18:49;;;;;;;15.98;14.38;;;17.20;99.90;;;;;;5046516;28;20056;-66
2022/06/26 01:21:19;;;;;;;12.70;11.60;;;17.20;99.90;;;;;;5041116;28;20057;-66
2022/06/26 01:23:45;;;;;;;11.20;10.20;;;17.20;99.90;;;;;;5041602;28;20504;-66
2022/06/26 01:26:11;;;;;;;8.75;7.38;;;17.30;99.90;;;;;;5031589;28;20038;-66
2022/06/26 01:28:37;;;;;;;7.75;7.05;;;17.40;99.90;;;;;;5045993;28;20524;-66
2022/06/26 01:31:03;;;;;;;9.23;6.82;;;17.50;99.90;;;;;;5039416;28;20556;-66
2022/06/26 01:33:30;;;;;;;5.90;5.30;;;17.50;99.90;;;;;;5045763;28;20077;-66
2022/06/26 01:35:55;;;;;;;7.63;6.90;;;17.50;99.90;;;;;;5017696;28;20057;-66
2022/06/26 01:38:23;;;;;;;10.05;9.13;;;17.30;99.90;;;;;;5026122;28;20044;-66
2022/06/26 01:40:52;;;;;;;18.52;16.45;;;17.30;99.90;;;;;;5025760;28;20589;-66
2022/06/26 01:43:26;;;;;;;21.63;19.45;;;17.20;99.90;;;;;;5026204;28;20461;-66
2022/06/26 01:45:54;;;;;;;18.45;16.48;;;17.30;99.90;;;;;;5022444;28;20049;-66
2022/06/26 01:48:21;;;;;;;21.65;19.55;;;17.50;99.90;;;;;;5026423;28;20415;-66
2022/06/26 01:50:47;;;;;;;24.77;19.50;;;17.80;99.90;;;;;;5025942;28;20049;-66
2022/06/26 01:53:14;;;;;;;20.27;18.08;;;17.90;99.90;;;;;;5008003;28;20070;-66
2022/06/26 01:55:41;;;;;;;21.38;18.98;;;18.00;99.90;;;;;;5025355;28;20160;-66
2022/06/26 01:58:07;;;;;;;20.50;18.30;;;18.00;99.90;;;;;;5024646;28;20120;-66
2022/06/26 02:00:36;;;;;;;19.80;17.73;;;18.10;99.90;;;;;;5032460;28;20041;-66
2022/06/26 02:03:02;;;;;;;22.67;16.98;;;18.10;99.90;;;;;;5045601;28;20115;-66
2022/06/26 02:05:28;;;;;;;19.13;16.85;;;18.30;99.90;;;;;;5027967;28;20041;-66
2022/06/26 02:07:54;;;;;;;18.88;16.77;;;18.40;99.90;;;;;;5045264;28;20506;-66
2022/06/26 02:15:52;;;;;;;18.45;15.93;;;18.30;99.90;;;;;;5022173;28;20049;-66
2022/06/26 02:18:18;;;;;;;19.52;17.25;;;18.30;99.90;;;;;;5044576;28;20037;-66
2022/06/26 02:20:45;;;;;;;17.00;15.15;;;18.40;99.90;;;;;;5043604;28;20064;-66
2022/06/26 02:23:11;;;;;;;17.45;15.75;;;18.40;99.90;;;;;;5044938;28;20038;-66
2022/06/26 02:25:37;;;;;;;18.60;16.63;;;18.50;99.90;;;;;;5044016;28;20045;-66
2022/06/26 02:28:03;;;;;;;23.65;16.73;;;18.50;99.90;;;;;;5048929;28;20077;-66
2022/06/26 02:30:29;;;;;;;21.98;16.80;;;18.50;99.90;;;;;;5028398;28;20056;-66
2022/06/26 02:32:56;;;;;;;21.00;18.30;;;18.40;99.90;;;;;;5045038;28;20041;-66
2022/06/26 02:35:26;;;;;;;21.63;18.77;;;18.40;99.90;;;;;;5049391;28;20051;-66
2022/06/26 02:37:54;;;;;;;23.77;18.48;;;18.40;99.90;;;;;;5042078;28;20417;-66
2022/06/26 02:40:22;;;;;;;23.48;18.40;;;18.40;99.90;;;;;;5044137;28;20050;-66
2022/06/26 02:42:48;;;;;;;20.77;18.38;;;18.20;99.90;;;;;;5044427;28;20049;-66
2022/06/26 02:45:14;;;;;;;23.52;20.25;;;18.30;99.90;;;;;;5044445;28;20048;-66
2022/06/26 02:47:40;;;;;;;22.98;19.17;;;18.30;99.90;;;;;;5045398;28;20037;-66
2022/06/26 02:50:07;;;;;;;21.40;19.05;;;18.10;99.90;;;;;;5044111;28;20112;-66
2022/06/26 02:52:33;;;;;;;23.42;18.15;;;18.00;99.90;;;;;;5031032;28;20037;-66
2022/06/26 02:55:00;;;;;;;21.15;17.73;;;17.90;99.90;;;;;;5041328;28;20108;-66
2022/06/26 02:57:26;;;;;;;20.15;18.02;;;18.00;99.90;;;;;;5033084;28;20126;-66
2022/06/26 02:59:52;;;;;;;16.00;13.60;;;18.00;99.90;;;;;;5042588;28;20045;-66
2022/06/26 03:02:18;;;;;;;17.35;13.57;;;17.80;99.90;;;;;;5052792;28;20037;-66
2022/06/26 03:04:44;;;;;;;15.25;13.40;;;17.80;99.90;;;;;;5027488;28;20037;-66
2022/06/26 03:07:09;;;;;;;15.30;13.55;;;17.80;99.90;;;;;;5009410;28;20065;-66
2022/06/26 03:09:35;;;;;;;16.27;13.90;;;17.70;99.90;;;;;;5044115;28;20114;-66
2022/06/26 03:12:01;;;;;;;15.00;12.60;;;17.90;99.90;;;;;;5043665;28;20042;-66
2022/06/26 03:14:27;;;;;;;14.63;13.05;;;17.80;99.90;;;;;;5044039;28;20175;-66
2022/06/26 03:16:53;;;;;;;15.57;13.90;;;17.80;99.90;;;;;;5040029;28;20104;-66
2022/06/26 03:19:19;;;;;;;13.80;12.05;;;17.70;99.90;;;;;;5027089;28;20056;-66
2022/06/26 03:21:45;;;;;;;14.40;12.38;;;17.80;99.90;;;;;;5027019;28;20046;-66
2022/06/26 03:24:10;;;;;;;15.13;12.63;;;17.70;99.90;;;;;;5031476;28;20048;-66
2022/06/26 03:26:38;;;;;;;15.77;12.68;;;17.80;99.90;;;;;;5009422;28;20052;-66
2022/06/26 03:29:09;;;;;;;14.88;11.93;;;17.70;99.90;;;;;;5027117;28;20107;-66
2022/06/26 03:31:35;;;;;;;14.18;12.02;;;17.80;99.90;;;;;;5050067;28;20041;-66
2022/06/26 03:34:02;;;;;;;13.60;12.00;;;17.80;99.90;;;;;;5044331;28;20104;-66
2022/06/26 03:36:30;;;;;;;13.55;12.07;;;17.60;99.90;;;;;;5044639;28;20051;-66
2022/06/26 03:38:56;;;;;;;15.10;12.52;;;17.80;99.90;;;;;;5044665;28;20101;-66
2022/06/26 03:41:22;;;;;;;16.40;13.05;;;17.70;99.90;;;;;;5044118;28;20097;-66
2022/06/26 03:43:48;;;;;;;15.52;11.57;;;17.70;99.90;;;;;;5038055;28;20042;-66
2022/06/26 03:46:14;;;;;;;12.98;10.85;;;17.70;99.90;;;;;;5048453;28;20097;-66
2022/06/26 03:48:41;;;;;;;11.77;10.05;;;17.70;99.90;;;;;;5045714;28;20048;-66
2022/06/26 03:51:07;;;;;;;15.27;9.90;;;17.60;99.90;;;;;;5043688;28;20410;-66
2022/06/26 03:53:33;;;;;;;11.68;10.15;;;17.60;99.90;;;;;;5037196;28;20103;-66
2022/06/26 03:55:59;;;;;;;9.75;8.85;;;17.70;99.90;;;;;;5044535;28;20045;-66
2022/06/26 03:58:25;;;;;;;9.50;8.55;;;17.70;99.90;;;;;;5026900;28;20052;-66
2022/06/26 04:00:51;;;;;;;10.50;8.98;;;17.70;99.90;;;;;;5025317;28;20070;-66
2022/06/26 04:03:17;;;;;;;8.18;7.35;;;17.80;99.90;;;;;;5044879;28;20050;-66
2022/06/26 04:05:43;;;;;;;8.60;7.70;;;17.70;99.90;;;;;;5044025;28;20060;-66
2022/06/26 04:08:09;;;;;;;11.93;7.88;;;17.60;99.90;;;;;;5045606;28;20077;-66
2022/06/26 04:10:35;;;;;;;8.55;6.90;;;17.50;99.90;;;;;;5046592;28;20042;-66
2022/06/26 04:13:04;;;;;;;11.25;7.63;;;17.60;99.90;;;;;;5034407;28;20050;-66
2022/06/26 04:15:31;;;;;;;8.10;7.32;;;17.70;99.90;;;;;;5047205;28;20144;-66
2022/06/26 04:17:57;;;;;;;8.20;6.65;;;17.70;99.90;;;;;;5026636;28;20038;-66
2022/06/26 04:20:23;;;;;;;7.45;6.63;;;17.60;99.90;;;;;;5044435;28;20064;-66
2022/06/26 04:23:07;;;;;;;7.15;6.45;;;17.70;99.90;;;;;;5044798;28;20107;-66
2022/06/26 04:25:34;;;;;;;10.43;7.68;;;17.50;99.90;;;;;;5044283;28;20077;-66
2022/06/26 04:28:00;;;;;;;13.32;7.15;;;17.50;99.90;;;;;;5042927;28;20482;-66
2022/06/26 04:30:26;;;;;;;8.43;7.40;;;17.30;99.90;;;;;;5045297;28;20049;-66
2022/06/26 04:32:52;;;;;;;11.05;7.57;;;17.30;99.90;;;;;;5048591;28;20517;-66
2022/06/26 04:35:18;;;;;;;8.73;7.50;;;17.30;99.90;;;;;;5026567;28;20180;-66
2022/06/26 04:37:43;;;;;;;10.18;8.18;;;17.40;99.90;;;;;;5043758;28;20046;-66
2022/06/26 04:40:11;;;;;;;9.95;8.10;;;17.30;99.90;;;;;;5046102;28;20046;-66
2022/06/26 04:42:38;;;;;;;11.80;8.23;;;17.40;99.90;;;;;;5046693;28;20045;-66
2022/06/26 04:45:05;;;;;;;10.30;7.80;;;17.40;99.90;;;;;;5046815;28;20049;-66
2022/06/26 04:47:30;;;;;;;8.15;6.75;;;17.30;99.90;;;;;;5046395;28;20054;-66
2022/06/26 04:49:56;;;;;;;8.40;6.97;;;17.20;99.90;;;;;;5012391;28;20033;-66
2022/06/26 04:52:22;;;;;;;7.50;6.72;;;17.30;99.90;;;;;;5028948;28;20045;-66
2022/06/26 04:54:47;;;;;;;7.97;6.05;;;17.30;99.90;;;;;;5029478;28;20053;-66
2022/06/26 04:57:13;;;;;;;7.20;6.50;;;17.40;99.90;;;;;;5029705;28;20046;-66
2022/06/26 04:59:39;;;;;;;8.57;6.55;;;17.40;99.90;;;;;;5030391;28;20065;-66
2022/06/26 05:02:06;;;;;;;10.23;7.38;;;17.50;99.90;;;;;;5028033;28;20093;-66
2022/06/26 05:04:32;;;;;;;8.70;6.68;;;17.70;99.90;;;;;;5046166;28;20042;-66
2022/06/26 05:06:58;;;;;;;6.72;6.13;;;17.60;99.90;;;;;;5045681;28;20394;-66
2022/06/26 05:09:25;;;;;;;7.65;6.57;;;17.60;99.90;;;;;;5034806;28;20057;-66
2022/06/26 05:11:51;;;;;;;7.22;6.35;;;17.60;99.90;;;;;;5030956;28;20049;-66
2022/06/26 05:14:18;;;;;;;8.35;6.30;;;17.60;99.90;;;;;;5047622;28;20049;-66
2022/06/26 05:16:44;;;;;;;6.85;6.00;;;17.50;99.90;;;;;;5047198;28;20073;-66
2022/06/26 05:19:10;;;;;;;6.63;5.97;;;17.60;99.90;;;;;;5046409;28;20091;-66
2022/06/26 05:21:35;;;;;;;8.63;6.32;;;17.80;99.90;;;;;;5029138;28;20050;-66
2022/06/26 05:24:01;;;;;;;7.45;6.50;;;17.80;99.90;;;;;;5045937;28;20092;-66
2022/06/26 05:26:27;;;;;;;7.38;5.53;;;17.90;99.90;;;;;;5028213;28;20049;-66
2022/06/26 05:28:53;;;;;;;8.02;6.18;;;17.90;99.90;;;;;;5052381;28;20453;-66
2022/06/26 05:31:19;;;;;;;7.30;6.38;;;18.10;99.90;;;;;;5039684;28;20048;-66
2022/06/26 05:33:45;;;;;;;7.95;7.00;;;18.00;99.90;;;;;;5018814;28;20051;-66
2022/06/26 05:36:11;;;;;;;7.22;6.50;;;18.10;99.90;;;;;;5057149;28;20053;-66
2022/06/26 05:38:38;;;;;;;8.23;7.32;;;18.00;99.90;;;;;;5045806;28;20041;-66
2022/06/26 05:41:04;;;;;;;8.30;7.10;;;18.00;99.90;;;;;;5050483;28;20042;-66
2022/06/26 05:43:30;;;;;;;8.25;7.45;;;18.00;99.90;;;;;;5031943;28;20059;-66
2022/06/26 05:45:56;;;;;;;8.40;7.05;;;17.80;99.90;;;;;;5046110;28;20085;-66
2022/06/26 05:48:24;;;;;;;9.23;7.78;;;17.90;99.90;;;;;;5045491;28;20465;-66
2022/06/26 05:50:50;;;;;;;7.00;6.25;;;18.00;99.90;;;;;;5027129;28;20061;-66
2022/06/26 05:53:16;;;;;;;7.53;5.88;;;18.10;99.90;;;;;;5045826;28;20052;-66
2022/06/26 05:55:42;;;;;;;8.07;7.05;;;18.10;99.90;;;;;;5032028;28;20401;-66
2022/06/26 05:58:07;;;;;;;9.57;7.85;;;18.10;99.90;;;;;;5028937;28;20045;-66
2022/06/26 06:00:34;;;;;;;9.07;7.35;;;17.90;99.90;;;;;;5031923;28;20053;-66
2022/06/26 06:03:00;;;;;;;9.55;8.55;;;18.20;99.90;;;;;;5044268;28;20041;-66
2022/06/26 06:05:26;;;;;;;12.20;9.27;;;18.10;99.90;;;;;;5045188;28;20045;-66
2022/06/26 06:07:52;;;;;;;9.75;8.60;;;18.10;99.90;;;;;;5045088;28;20041;-66
2022/06/26 06:10:19;;;;;;;11.63;9.82;;;18.10;99.90;;;;;;5046332;28;20060;-66
2022/06/26 06:12:46;;;;;;;11.07;9.88;;;18.20;99.90;;;;;;5044672;28;20060;-66
2022/06/26 06:15:12;;;;;;;13.88;10.50;;;18.30;99.90;;;;;;5045433;28;20053;-66
2022/06/26 06:17:40;;;;;;;13.02;11.00;;;18.20;99.90;;;;;;5052106;28;20041;-66
2022/06/26 06:20:15;;;;;;;11.95;10.60;;;18.30;99.90;;;;;;5026995;28;20048;-66
2022/06/26 06:22:47;;;;;;;11.65;10.30;;;18.30;99.90;;;;;;5045081;28;20061;-66
2022/06/26 06:25:13;;;;;;;13.07;10.80;;;18.40;99.90;;;;;;5045161;28;20041;-66
2022/06/26 06:27:39;;;;;;;13.95;11.38;;;18.40;99.90;;;;;;5045003;28;20047;-66
2022/06/26 06:30:08;;;;;;;12.55;11.25;;;18.40;99.90;;;;;;5030751;28;20072;-66
2022/06/26 06:32:34;;;;;;;12.63;11.27;;;18.50;99.90;;;;;;5044702;28;20081;-66
2022/06/26 06:35:00;;;;;;;13.25;10.65;;;18.50;99.90;;;;;;5030572;28;20049;-66
2022/06/26 06:37:26;;;;;;;14.48;12.50;;;18.60;99.90;;;;;;5016264;28;20072;-66
2022/06/26 06:39:52;;;;;;;14.85;12.07;;;18.60;99.90;;;;;;5044055;28;20774;-66
2022/06/26 06:42:18;;;;;;;13.27;11.57;;;18.60;99.90;;;;;;5025640;28;20526;-66
2022/06/26 06:44:44;;;;;;;11.70;10.52;;;18.60;99.90;;;;;;5048155;28;20108;-66
2022/06/26 06:47:12;;;;;;;11.32;10.23;;;18.70;99.90;;;;;;5044622;28;20041;-66
2022/06/26 06:49:38;;;;;;;11.80;10.45;;;18.60;99.90;;;;;;5044019;28;20034;-66
2022/06/26 06:52:04;;;;;;;12.73;11.00;;;18.80;99.90;;;;;;5044463;28;20114;-66
2022/06/26 06:54:30;;;;;;;11.02;9.95;;;18.60;99.90;;;;;;5027760;28;20049;-66
2022/06/26 06:56:56;;;;;;;11.90;10.20;;;18.80;99.90;;;;;;5026412;28;20052;-66
2022/06/26 06:59:22;;;;;;;13.00;10.40;;;18.80;99.90;;;;;;5026171;28;20045;-66
2022/06/26 07:01:47;;;;;;;12.02;10.80;;;18.70;99.90;;;;;;5020363;28;20080;-66
2022/06/26 07:04:13;;;;;;;13.25;11.13;;;18.70;99.90;;;;;;5041386;28;20038;-66
2022/06/26 07:06:39;;;;;;;13.38;12.07;;;18.80;99.90;;;;;;5043904;28;20037;-66
2022/06/26 07:09:05;;;;;;;12.82;11.20;;;18.80;99.90;;;;;;5027077;28;20033;-66
2022/06/26 07:11:32;;;;;;;12.60;11.20;;;18.70;99.90;;;;;;5045122;28;20059;-66
2022/06/26 07:13:58;;;;;;;14.43;11.70;;;18.90;99.90;;;;;;5044837;28;20132;-66
2022/06/26 07:16:23;;;;;;;14.82;12.82;;;18.90;99.90;;;;;;5025918;28;20056;-66
2022/06/26 07:18:49;;;;;;;15.43;12.77;;;18.90;99.90;;;;;;5044077;28;20041;-66
2022/06/26 07:21:15;;;;;;;15.43;13.80;;;18.80;99.90;;;;;;5044591;28;20052;-66
2022/06/26 07:23:41;;;;;;;15.02;13.40;;;18.60;99.90;;;;;;5045013;28;20136;-66
2022/06/26 07:26:07;;;;;;;16.38;14.68;;;18.60;99.90;;;;;;5026114;28;20037;-66
2022/06/26 07:28:32;;;;;;;14.82;13.43;;;18.50;99.90;;;;;;5044127;28;20046;-66
2022/06/26 07:30:58;;;;;;;16.58;14.88;;;18.40;99.90;;;;;;5043254;28;20175;-66
2022/06/26 07:36:09;;;;;;;13.88;12.45;;;18.50;99.90;;;;;;5044441;28;20045;-66
2022/06/26 07:38:35;;;;;;;15.10;13.10;;;18.50;99.90;;;;;;5022846;28;20057;-66
2022/06/26 07:41:00;;;;;;;14.20;12.85;;;18.60;99.90;;;;;;5046066;28;20401;-66
2022/06/26 07:43:26;;;;;;;15.43;13.93;;;18.70;99.90;;;;;;5044601;28;20056;-66
2022/06/26 07:45:52;;;;;;;19.92;17.83;;;18.90;99.90;;;;;;5044066;28;20046;-66
2022/06/26 07:48:17;;;;;;;19.35;17.48;;;19.00;99.90;;;;;;5028968;28;20060;-66
2022/06/26 07:50:44;;;;;;;20.60;18.42;;;19.20;99.90;;;;;;5047384;28;20080;-66
2022/06/26 07:53:10;;;;;;;18.58;16.42;;;19.30;99.90;;;;;;5044952;28;20405;-66
2022/06/26 07:55:36;;;;;;;20.98;18.98;;;19.40;99.90;;;;;;5044659;28;20049;-66
2022/06/26 07:58:01;;;;;;;21.58;19.42;;;19.30;99.90;;;;;;5047420;28;20032;-66
2022/06/26 08:00:27;;;;;;;20.58;17.90;;;19.10;99.90;;;;;;5043517;28;20049;-66
2022/06/26 08:02:53;;;;;;;19.98;17.98;;;19.10;99.90;;;;;;5049781;28;20041;-66
2022/06/26 08:05:19;;;;;;;19.95;18.02;;;19.40;99.90;;;;;;5049696;28;20073;-66
2022/06/26 08:07:45;;;;;;;19.83;17.80;;;19.50;99.90;;;;;;5044149;28;20042;-66
2022/06/26 08:10:11;;;;;;;20.35;18.35;;;19.60;99.90;;;;;;5042930;28;20037;-66
2022/06/26 08:12:37;;;;;;;18.38;16.65;;;19.50;99.90;;;;;;5058891;28;20482;-66
2022/06/26 08:15:04;;;;;;;17.75;16.02;;;19.60;99.90;;;;;;5067785;28;20049;-66
2022/06/26 08:17:29;;;;;;;17.75;15.18;;;19.80;99.90;;;;;;5070260;28;20069;-66
2022/06/26 08:19:55;;;;;;;18.60;16.70;;;19.70;99.90;;;;;;5053638;28;20435;-66
2022/06/26 08:22:21;;;;;;;16.75;15.05;;;19.60;99.90;;;;;;5066877;28;20055;-66
2022/06/26 08:24:46;;;;;;;16.33;14.82;;;19.70;99.90;;;;;;5067069;28;20045;-66
2022/06/26 08:27:12;;;;;;;15.25;13.75;;;19.90;99.90;;;;;;5068215;28;20163;-66
2022/06/26 08:29:38;;;;;;;16.20;14.70;;;19.90;99.90;;;;;;5049884;28;20069;-66
2022/06/26 08:32:05;;;;;;;15.88;14.27;;;19.60;99.90;;;;;;5055139;28;20041;-66
2022/06/26 08:34:31;;;;;;;16.52;14.93;;;19.70;99.90;;;;;;5066524;28;20118;-66
2022/06/26 08:36:57;;;;;;;15.95;14.40;;;19.60;99.90;;;;;;5074571;28;20041;-64
2022/06/26 08:39:23;;;;;;;14.45;12.90;;;19.60;99.90;;;;;;5061247;28;20052;-66
2022/06/26 08:41:52;;;;;;;15.02;13.40;;;19.70;99.90;;;;;;5031140;28;20037;-65
2022/06/26 08:44:17;;;;;;;17.20;15.40;;;19.80;99.90;;;;;;5049678;28;20056;-67
2022/06/26 08:46:45;;;;;;;15.55;13.95;;;19.80;99.90;;;;;;5046856;28;20037;-65
2022/06/26 08:49:20;;;;;;;11.93;10.57;;;19.90;99.90;;;;;;4981740;28;20173;-62
2022/06/26 08:51:48;;;;;;;12.13;11.02;;;20.00;99.90;;;;;;5053994;28;20049;-62
2022/06/26 08:54:14;;;;;;;14.18;12.15;;;19.90;99.90;;;;;;4993834;28;20073;-63
2022/06/26 08:56:49;;;;;;;11.25;10.13;;;19.80;99.90;;;;;;5034927;28;20045;-63
2022/06/26 08:59:18;;;;;;;11.88;10.80;;;19.70;99.90;;;;;;5042963;28;20049;-63
2022/06/26 09:01:45;;;;;;;10.52;9.43;;;19.80;99.90;;;;;;5032582;28;20053;-63
2022/06/26 09:04:11;;;;;;;8.45;7.65;;;19.90;99.90;;;;;;5062940;28;20048;-63
2022/06/26 09:06:38;;;;;;;9.43;8.45;;;20.10;99.90;;;;;;5029584;28;20091;-62
2022/06/26 09:09:24;;;;;;;9.82;8.40;;;19.90;99.90;;;;;;5044387;28;20045;-62
2022/06/26 09:11:58;;;;;;;6.90;6.15;;;19.70;99.90;;;;;;5032575;28;20060;-62
2022/06/26 09:14:26;;;;;;;7.25;6.22;;;19.90;99.90;;;;;;5012350;28;20045;-62
2022/06/26 09:16:52;;;;;;;8.23;5.95;;;19.90;99.90;;;;;;5005563;28;20041;-63
2022/06/26 09:19:24;;;;;;;5.22;4.25;;;20.00;99.90;;;;;;5021199;28;20088;-63
2022/06/26 09:21:52;;;;;;;5.57;5.07;;;20.00;99.90;;;;;;4993404;28;20046;-63
2022/06/26 09:24:20;;;;;;;6.95;5.18;;;20.10;99.90;;;;;;5017531;28;20355;-63
2022/06/26 09:27:00;;;;;;;6.57;5.25;;;20.00;99.90;;;;;;5010948;28;20451;-63
2022/06/26 09:29:25;;;;;;;6.28;5.43;;;20.10;99.90;;;;;;4999275;28;20113;-63
2022/06/26 09:31:52;;;;;;;6.63;5.15;;;20.20;99.90;;;;;;5002859;28;20072;-63
2022/06/26 09:34:24;;;;;;;8.45;5.68;;;20.50;99.90;;;;;;5006228;28;20046;-63
2022/06/26 09:37:01;;;;;;;6.15;5.55;;;20.50;99.90;;;;;;5000163;28;20390;-63
2022/06/26 09:39:30;;;;;;;8.48;6.45;;;20.60;99.90;;;;;;4990568;28;20060;-64
2022/06/26 09:41:56;;;;;;;7.22;5.32;;;20.70;99.90;;;;;;5007281;28;20065;-64
2022/06/26 09:44:22;;;;;;;5.43;4.63;;;20.70;99.90;;;;;;5012698;28;20076;-63
2022/06/26 09:46:49;;;;;;;5.72;4.88;;;20.80;99.90;;;;;;4980115;28;20064;-64
2022/06/26 09:49:17;;;;;;;6.15;4.30;;;21.00;99.90;;;;;;5008507;28;20046;-62
2022/06/26 09:51:44;;;;;;;6.40;5.45;;;21.20;99.90;;;;;;5023435;28;20077;-61
2022/06/26 09:54:10;;;;;;;7.53;4.80;;;21.10;99.90;;;;;;4989215;28;20049;-63
2022/06/26 09:56:36;;;;;;;7.22;5.22;;;21.20;99.90;;;;;;5004206;28;20049;-63
2022/06/26 09:59:02;;;;;;;7.25;5.25;;;21.40;99.90;;;;;;5035822;28;20063;-63
2022/06/26 10:07:02;;;;;;;6.93;4.85;;;21.40;99.90;;;;;;5010846;28;20068;-63
2022/06/26 10:09:28;;;;;;;5.70;4.57;;;21.30;99.90;;;;;;5020470;28;20593;-62
2022/06/26 10:11:58;;;;;;;5.18;3.78;;;21.40;99.90;;;;;;5013012;28;20470;-63
2022/06/26 10:14:28;;;;;;;4.63;3.83;;;21.40;99.90;;;;;;5037939;28;20059;-63
2022/06/26 10:16:57;;;;;;;6.80;4.43;;;21.70;99.90;;;;;;5046925;28;20107;-63
2022/06/26 10:19:27;;;;;;;4.63;4.00;;;21.50;99.90;;;;;;5039768;28;20048;-63
2022/06/26 10:21:54;;;;;;;4.97;4.47;;;21.60;99.90;;;;;;5031938;28;20061;-60
2022/06/26 10:24:19;;;;;;;7.68;4.43;;;21.50;99.90;;;;;;5039869;28;20121;-62
2022/06/26 10:26:57;;;;;;;5.68;3.97;;;21.60;99.90;;;;;;5016979;28;20077;-62
2022/06/26 10:29:36;;;;;;;6.07;3.78;;;21.50;99.90;;;;;;5021366;28;20053;-62
2022/06/26 10:32:03;;;;;;;5.47;3.85;;;21.70;99.90;;;;;;5033068;28;20121;-62
2022/06/26 10:34:29;;;;;;;4.22;3.53;;;22.10;99.90;;;;;;5041276;28;20040;-62
2022/06/26 10:37:15;;;;;;;4.30;3.47;;;21.80;99.90;;;;;;5008377;28;20053;-62
2022/06/26 10:39:45;;;;;;;3.83;2.70;;;21.80;99.90;;;;;;5001648;28;20059;-62
2022/06/26 10:45:04;;;;;;;3.92;3.28;;;22.10;99.90;;;;;;5026759;28;20087;-62
2022/06/26 10:48:00;;;;;;;4.78;3.70;;;21.90;99.90;;;;;;5017048;28;20057;-62
2022/06/26 10:50:36;;;;;;;4.15;2.95;;;21.80;99.90;;;;;;5017111;28;20053;-60
2022/06/26 10:53:24;;;;;;;4.35;3.47;;;21.70;99.90;;;;;;4998008;28;20057;-60
2022/06/26 10:55:53;;;;;;;6.15;4.28;;;21.70;99.90;;;;;;4991553;28;20140;-61
2022/06/26 10:58:27;;;;;;;4.60;3.65;;;22.00;99.90;;;;;;4996775;28;20073;-64
2022/06/26 11:00:54;;;;;;;6.13;3.35;;;21.90;99.90;;;;;;4996414;28;20054;-63
2022/06/26 11:03:21;;;;;;;4.70;3.58;;;22.00;99.90;;;;;;5035594;28;20057;-65
2022/06/26 11:06:06;;;;;;;5.07;3.75;;;22.10;99.90;;;;;;5008890;28;20056;-64
2022/06/26 11:08:43;;;;;;;5.30;3.88;;;22.10;99.90;;;;;;5023418;28;20061;-64
2022/06/26 11:11:20;;;;;;;4.50;3.67;;;22.00;99.90;;;;;;5019420;28;20166;-64
2022/06/26 11:14:11;;;;;;;6.07;3.88;;;22.00;99.90;;;;;;4997703;28;20061;-64
2022/06/26 11:16:42;;;;;;;4.88;3.90;;;22.20;99.90;;;;;;4994760;28;20056;-64
2022/06/26 11:19:24;;;;;;;6.97;3.85;;;22.10;99.90;;;;;;5014147;28;20050;-63
2022/06/26 11:21:51;;;;;;;6.18;4.65;;;22.10;99.90;;;;;;5008589;28;20049;-63
2022/06/26 11:24:16;;;;;;;4.68;3.80;;;22.20;99.90;;;;;;5014919;28;20042;-64
2022/06/26 11:26:42;;;;;;;5.22;3.50;;;22.10;99.90;;;;;;5020583;28;20076;-63
2022/06/26 11:29:08;;;;;;;5.85;3.50;;;22.20;99.90;;;;;;5035079;28;20109;-64
2022/06/26 11:31:35;;;;;;;5.50;3.45;;;22.10;99.90;;;;;;5022435;28;20556;-61
2022/06/26 11:34:15;;;;;;;5.55;3.83;;;22.50;99.90;;;;;;5043229;28;20143;-61
2022/06/26 11:36:55;;;;;;;4.30;3.42;;;22.60;99.90;;;;;;5027324;28;20073;-61
2022/06/26 11:39:22;;;;;;;4.35;3.35;;;22.60;99.90;;;;;;5050550;28;20416;-61
2022/06/26 11:41:48;;;;;;;4.30;3.85;;;22.80;99.90;;;;;;5008937;28;20045;-61
2022/06/26 11:44:14;;;;;;;4.95;3.75;;;22.60;99.90;;;;;;5026997;28;20041;-63
2022/06/26 11:46:40;;;;;;;5.95;3.70;;;22.80;99.90;;;;;;5043647;28;20048;-61
2022/06/26 11:49:09;;;;;;;5.22;3.20;;;22.60;99.90;;;;;;5041285;28;20080;-61
2022/06/26 11:51:35;;;;;;;;;;;22.60;99.90;;;;;;5048798;28;20059;-61
2022/06/26 11:54:01;;;;;;;5.95;4.15;;;22.60;99.90;;;;;;5030984;28;19925;-61
2022/06/26 11:56:28;;;;;;;6.13;3.53;;;22.90;99.90;;;;;;5019466;28;20162;-61
2022/06/26 11:58:56;;;;;;;7.25;3.25;;;23.00;99.90;;;;;;5027944;28;20053;-61
2022/06/26 12:01:31;;;;;;;5.38;3.42;;;22.90;99.90;;;;;;5051007;28;20147;-61
2022/06/26 12:03:57;;;;;;;4.22;3.30;;;23.10;99.90;;;;;;5026997;28;20047;-60
2022/06/26 12:06:29;;;;;;;5.78;3.25;;;23.30;99.90;;;;;;5036104;28;20059;-60
2022/06/26 12:08:56;;;;;;;6.68;3.30;;;23.40;99.90;;;;;;5061642;28;20044;-61
2022/06/26 12:11:25;;;;;;;5.47;3.15;;;23.30;99.90;;;;;;5047401;28;20081;-61
2022/06/26 12:13:51;;;;;;;3.47;2.92;;;23.10;99.90;;;;;;5022525;28;20103;-61
2022/06/26 12:16:19;;;;;;;4.28;3.40;;;23.20;99.90;;;;;;5038151;28;20068;-60
2022/06/26 12:18:47;;;;;;;5.47;3.42;;;23.20;99.90;;;;;;5025282;28;20049;-60
2022/06/26 12:21:18;;;;;;;4.07;3.10;;;23.20;99.90;;;;;;5039662;28;20076;-60
2022/06/26 12:23:45;;;;;;;4.20;3.03;;;23.30;99.90;;;;;;5026959;28;20067;-61
2022/06/26 12:26:13;;;;;;;4.13;3.50;;;23.30;99.90;;;;;;5009867;28;20113;-61
2022/06/26 12:29:00;;;;;;;5.82;3.35;;;22.80;99.90;;;;;;5039790;28;20100;-61
2022/06/26 12:31:26;;;;;;;5.93;3.97;;;23.00;99.90;;;;;;5044834;28;20112;-60
2022/06/26 12:33:52;;;;;;;5.97;3.35;;;23.00;99.90;;;;;;5044888;28;20101;-61
2022/06/26 12:36:18;;;;;;;5.03;3.25;;;22.90;99.90;;;;;;5046053;28;20172;-61
2022/06/26 12:38:45;;;;;;;6.30;4.15;;;23.00;99.90;;;;;;5053498;28;20072;-61
2022/06/26 12:41:18;;;;;;;4.55;3.55;;;23.10;99.90;;;;;;5034424;28;20048;-61
2022/06/26 12:43:49;;;;;;;7.32;3.83;;;23.40;99.90;;;;;;5060654;28;20051;-61
2022/06/26 12:46:15;;;;;;;4.03;3.58;;;23.40;99.90;;;;;;5055309;28;20050;-61
2022/06/26 12:48:41;;;;;;;5.45;3.53;;;23.30;99.90;;;;;;5044453;28;20141;-61
2022/06/26 12:51:07;;;;;;;5.38;4.00;;;23.00;99.90;;;;;;5056721;28;20048;-61
2022/06/26 12:53:33;;;;;;;6.93;4.18;;;22.70;99.90;;;;;;5060397;28;20045;-61
2022/06/26 12:55:59;;;;;;;7.82;4.13;;;22.60;99.90;;;;;;5007669;28;20049;-61